createdAt,value
2022-11-09T00:00:20.500Z,15.17
2022-11-09T00:01:20.500Z,15.14
2022-11-09T00:02:20.490Z,15.17
2022-11-09T00:03:20.721Z,15.14
2022-11-09T00:04:20.457Z,15.14
2022-11-09T00:05:20.436Z,15.14
2022-11-09T00:06:20.437Z,15.17
2022-11-09T00:07:20.496Z,15.20
2022-11-09T00:08:20.396Z,15.23
2022-11-09T00:09:20.421Z,15.23
2022-11-09T00:10:20.369Z,15.20
2022-11-09T00:11:20.376Z,15.20
2022-11-09T00:12:20.339Z,15.20
2022-11-09T00:13:20.632Z,15.20
2022-11-09T00:14:20.316Z,15.25
2022-11-09T00:15:20.287Z,15.25
2022-11-09T00:16:20.289Z,15.21
2022-11-09T00:17:20.268Z,15.21
2022-11-09T00:18:20.257Z,15.19
2022-11-09T00:19:20.248Z,15.17
2022-11-09T00:20:20.226Z,15.17
2022-11-09T00:21:20.217Z,15.17
2022-11-09T00:22:20.206Z,15.16
2022-11-09T00:23:20.573Z,15.14
2022-11-09T00:24:20.176Z,15.11
2022-11-09T00:25:20.167Z,15.10
2022-11-09T00:26:20.165Z,15.09
2022-11-09T00:27:20.136Z,15.09
2022-11-09T00:28:20.119Z,15.06
2022-11-09T00:29:20.105Z,15.06
2022-11-09T00:30:20.097Z,15.03
2022-11-09T00:31:20.096Z,15.03
2022-11-09T00:32:24.008Z,15.02
2022-11-09T00:33:21.392Z,15.01
2022-11-09T00:34:20.047Z,14.98
2022-11-09T00:35:20.032Z,14.96
2022-11-09T00:36:20.017Z,14.96
2022-11-09T00:37:20.085Z,14.95
2022-11-09T00:38:19.975Z,14.94
2022-11-09T00:39:19.986Z,14.94
2022-11-09T00:40:19.954Z,14.92
2022-11-09T00:41:19.944Z,14.95
2022-11-09T00:42:19.939Z,14.96
2022-11-09T00:43:20.241Z,14.96
2022-11-09T00:44:19.904Z,14.96
2022-11-09T00:45:19.885Z,14.98
2022-11-09T00:46:19.882Z,14.99
2022-11-09T00:47:19.896Z,14.98
2022-11-09T00:48:19.844Z,14.98
2022-11-09T00:49:19.875Z,14.98
2022-11-09T00:50:19.834Z,14.98
2022-11-09T00:51:19.835Z,14.95
2022-11-09T00:52:19.792Z,14.92
2022-11-09T00:53:20.154Z,14.91
2022-11-09T00:54:19.765Z,14.91
2022-11-09T00:55:19.744Z,14.89
2022-11-09T00:56:19.737Z,14.91
2022-11-09T00:57:19.730Z,14.89
2022-11-09T00:58:19.711Z,14.91
2022-11-09T00:59:19.715Z,14.91
2022-11-09T01:00:19.675Z,14.94
2022-11-09T01:01:19.728Z,14.92
2022-11-09T01:02:19.653Z,14.89
2022-11-09T01:03:20.083Z,14.89
2022-11-09T01:04:19.634Z,14.89
2022-11-09T01:05:19.657Z,14.88
2022-11-09T01:06:19.592Z,14.88
2022-11-09T01:07:19.645Z,14.86
2022-11-09T01:08:19.571Z,14.86
2022-11-09T01:09:19.553Z,14.84
2022-11-09T01:10:19.559Z,14.83
2022-11-09T01:11:19.552Z,14.83
2022-11-09T01:12:19.521Z,14.81
2022-11-09T01:13:19.784Z,14.80
2022-11-09T01:14:19.495Z,14.80
2022-11-09T01:15:19.481Z,14.78
2022-11-09T01:16:19.482Z,14.78
2022-11-09T01:17:19.457Z,14.78
2022-11-09T01:18:19.454Z,14.78
2022-11-09T01:19:19.422Z,14.77
2022-11-09T01:20:19.411Z,14.75
2022-11-09T01:21:19.405Z,14.73
2022-11-09T01:22:19.399Z,14.73
2022-11-09T01:23:19.607Z,14.72
2022-11-09T01:24:19.370Z,14.72
2022-11-09T01:25:19.359Z,14.75
2022-11-09T01:26:19.343Z,14.77
2022-11-09T01:27:19.320Z,14.77
2022-11-09T01:28:19.320Z,14.78
2022-11-09T01:29:19.299Z,14.75
2022-11-09T01:30:19.280Z,14.75
2022-11-09T01:31:19.269Z,14.75
2022-11-09T01:32:19.258Z,14.73
2022-11-09T01:33:19.483Z,14.73
2022-11-09T01:34:19.260Z,14.75
2022-11-09T01:35:19.229Z,14.73
2022-11-09T01:36:19.188Z,14.73
2022-11-09T01:37:19.178Z,14.72
2022-11-09T01:38:19.180Z,14.73
2022-11-09T01:39:19.169Z,14.73
2022-11-09T01:40:19.157Z,14.73
2022-11-09T01:41:19.138Z,14.73
2022-11-09T01:42:19.127Z,14.72
2022-11-09T01:43:19.407Z,14.73
2022-11-09T01:44:19.095Z,14.75
2022-11-09T01:45:19.076Z,14.75
2022-11-09T01:46:19.077Z,14.77
2022-11-09T01:47:19.066Z,14.73
2022-11-09T01:48:19.048Z,14.77
2022-11-09T01:49:19.028Z,14.80
2022-11-09T01:50:19.013Z,14.81
2022-11-09T01:51:19.004Z,14.83
2022-11-09T01:52:18.996Z,14.84
2022-11-09T01:53:19.385Z,14.83
2022-11-09T01:54:18.965Z,14.81
2022-11-09T01:55:18.964Z,14.77
2022-11-09T01:56:18.935Z,14.75
2022-11-09T01:57:18.936Z,14.75
2022-11-09T01:58:18.907Z,14.72
2022-11-09T01:59:18.895Z,14.73
2022-11-09T02:00:18.884Z,14.73
2022-11-09T02:01:18.948Z,14.73
2022-11-09T02:02:18.865Z,14.75
2022-11-09T02:03:19.105Z,14.77
2022-11-09T02:04:18.841Z,14.78
2022-11-09T02:05:18.826Z,14.78
2022-11-09T02:06:18.803Z,14.80
2022-11-09T02:07:18.850Z,14.77
2022-11-09T02:08:18.792Z,14.78
2022-11-09T02:09:18.765Z,14.75
2022-11-09T02:10:18.770Z,14.75
2022-11-09T02:11:18.754Z,14.75
2022-11-09T02:12:18.739Z,14.72
2022-11-09T02:13:19.096Z,14.70
2022-11-09T02:14:18.712Z,14.69
2022-11-09T02:15:18.705Z,14.69
2022-11-09T02:16:18.675Z,14.62
2022-11-09T02:17:18.698Z,14.62
2022-11-09T02:18:18.663Z,14.60
2022-11-09T02:19:18.642Z,14.58
2022-11-09T02:20:18.640Z,14.58
2022-11-09T02:21:18.613Z,14.58
2022-11-09T02:22:18.603Z,14.60
2022-11-09T02:23:18.848Z,14.60
2022-11-09T02:24:18.580Z,14.61
2022-11-09T02:25:18.572Z,14.61
2022-11-09T02:26:18.559Z,14.61
2022-11-09T02:27:18.532Z,14.60
2022-11-09T02:28:18.532Z,14.60
2022-11-09T02:29:18.531Z,14.60
2022-11-09T02:30:18.517Z,14.57
2022-11-09T02:31:18.490Z,14.57
2022-11-09T02:32:18.480Z,14.54
2022-11-09T02:33:18.773Z,14.54
2022-11-09T02:34:18.472Z,14.52
2022-11-09T02:35:18.435Z,14.51
2022-11-09T02:36:18.441Z,14.50
2022-11-09T02:37:18.412Z,14.47
2022-11-09T02:38:18.409Z,14.46
2022-11-09T02:39:18.408Z,14.45
2022-11-09T02:40:18.371Z,14.43
2022-11-09T02:41:18.359Z,14.43
2022-11-09T02:42:21.390Z,14.42
2022-11-09T02:43:18.746Z,14.40
2022-11-09T02:44:18.328Z,14.40
2022-11-09T02:45:18.311Z,14.40
2022-11-09T02:46:18.308Z,14.42
2022-11-09T02:47:18.279Z,14.40
2022-11-09T02:48:18.270Z,14.39
2022-11-09T02:49:18.247Z,14.36
2022-11-09T02:50:18.248Z,14.37
2022-11-09T02:51:18.221Z,14.37
2022-11-09T02:52:18.206Z,14.36
2022-11-09T02:53:18.604Z,14.35
2022-11-09T02:54:18.186Z,14.32
2022-11-09T02:55:18.188Z,14.32
2022-11-09T02:56:18.166Z,14.28
2022-11-09T02:57:18.146Z,14.28
2022-11-09T02:58:18.146Z,14.29
2022-11-09T02:59:18.116Z,14.28
2022-11-09T03:00:18.135Z,14.27
2022-11-09T03:01:18.286Z,14.25
2022-11-09T03:02:18.087Z,14.24
2022-11-09T03:03:18.455Z,14.25
2022-11-09T03:04:18.057Z,14.27
2022-11-09T03:05:18.044Z,14.28
2022-11-09T03:06:18.045Z,14.32
2022-11-09T03:07:18.098Z,14.32
2022-11-09T03:08:18.016Z,14.32
2022-11-09T03:09:17.996Z,14.29
2022-11-09T03:10:17.985Z,14.29
2022-11-09T03:11:17.973Z,14.32
2022-11-09T03:12:17.954Z,14.28
2022-11-09T03:13:18.189Z,14.25
2022-11-09T03:14:17.927Z,14.24
2022-11-09T03:15:17.925Z,14.22
2022-11-09T03:16:17.944Z,14.24
2022-11-09T03:17:17.886Z,14.27
2022-11-09T03:18:17.884Z,14.27
2022-11-09T03:19:17.867Z,14.28
2022-11-09T03:20:17.871Z,14.28
2022-11-09T03:21:17.851Z,14.27
2022-11-09T03:22:17.844Z,14.27
2022-11-09T03:23:18.072Z,14.27
2022-11-09T03:24:17.804Z,14.27
2022-11-09T03:25:17.797Z,14.27
2022-11-09T03:26:17.784Z,14.27
2022-11-09T03:27:17.777Z,14.29
2022-11-09T03:28:17.765Z,14.33
2022-11-09T03:29:17.753Z,14.35
2022-11-09T03:30:17.749Z,14.35
2022-11-09T03:31:17.721Z,14.35
2022-11-09T03:32:17.729Z,14.35
2022-11-09T03:33:17.900Z,14.35
2022-11-09T03:34:17.683Z,14.35
2022-11-09T03:35:17.676Z,14.35
2022-11-09T03:36:17.653Z,14.35
2022-11-09T03:37:17.685Z,14.33
2022-11-09T03:38:17.630Z,14.35
2022-11-09T03:39:17.612Z,14.35
2022-11-09T03:40:17.603Z,14.39
2022-11-09T03:41:17.591Z,14.42
2022-11-09T03:42:17.575Z,14.42
2022-11-09T03:43:17.882Z,14.43
2022-11-09T03:44:17.551Z,14.42
2022-11-09T03:45:17.531Z,14.42
2022-11-09T03:46:17.522Z,14.43
2022-11-09T03:47:17.513Z,14.42
2022-11-09T03:48:17.521Z,14.43
2022-11-09T03:49:17.489Z,14.42
2022-11-09T03:50:17.472Z,14.42
2022-11-09T03:51:17.459Z,14.43
2022-11-09T03:52:17.452Z,14.42
2022-11-09T03:53:17.673Z,14.43
2022-11-09T03:54:17.430Z,14.40
2022-11-09T03:55:17.414Z,14.40
2022-11-09T03:56:17.399Z,14.40
2022-11-09T03:57:17.380Z,14.40
2022-11-09T03:58:17.379Z,14.43
2022-11-09T03:59:17.370Z,14.45
2022-11-09T04:00:17.369Z,14.46
2022-11-09T04:01:17.388Z,14.46
2022-11-09T04:02:17.327Z,14.47
2022-11-09T04:03:17.617Z,14.45
2022-11-09T04:04:17.314Z,14.46
2022-11-09T04:05:17.278Z,14.47
2022-11-09T04:06:17.278Z,14.47
2022-11-09T04:07:17.294Z,14.50
2022-11-09T04:08:17.248Z,14.47
2022-11-09T04:09:17.248Z,14.46
2022-11-09T04:10:17.231Z,14.46
2022-11-09T04:11:17.197Z,14.47
2022-11-09T04:12:17.198Z,14.50
2022-11-09T04:13:17.510Z,14.52
2022-11-09T04:14:17.168Z,14.52
2022-11-09T04:15:17.164Z,14.52
2022-11-09T04:16:17.148Z,14.52
2022-11-09T04:17:17.130Z,14.46
2022-11-09T04:18:17.115Z,14.43
2022-11-09T04:19:17.101Z,14.40
2022-11-09T04:20:17.105Z,14.37
2022-11-09T04:21:20.297Z,14.36
2022-11-09T04:22:18.056Z,14.28
2022-11-09T04:23:17.409Z,14.24
2022-11-09T04:24:17.045Z,14.21
2022-11-09T04:25:17.037Z,14.18
2022-11-09T04:26:17.005Z,14.17
2022-11-09T04:27:16.997Z,14.15
2022-11-09T04:28:16.996Z,14.14
2022-11-09T04:29:16.974Z,14.10
2022-11-09T04:30:17.002Z,14.10
2022-11-09T04:31:16.946Z,14.06
2022-11-09T04:32:16.926Z,14.04
2022-11-09T04:33:17.172Z,14.02
2022-11-09T04:34:16.923Z,13.99
2022-11-09T04:35:16.894Z,14.00
2022-11-09T04:36:16.907Z,13.97
2022-11-09T04:37:16.865Z,14.02
2022-11-09T04:38:16.866Z,14.03
2022-11-09T04:39:16.845Z,14.03
2022-11-09T04:40:16.836Z,14.06
2022-11-09T04:41:16.827Z,14.07
2022-11-09T04:42:16.804Z,14.07
2022-11-09T04:43:16.788Z,14.09
2022-11-09T04:44:16.785Z,14.09
2022-11-09T04:45:16.765Z,14.10
2022-11-09T04:46:16.775Z,14.12
2022-11-09T04:47:16.745Z,14.12
2022-11-09T04:48:16.743Z,14.14
2022-11-09T04:49:16.716Z,14.17
2022-11-09T04:50:16.717Z,14.17
2022-11-09T04:51:16.692Z,14.18
2022-11-09T04:52:16.695Z,14.18
2022-11-09T04:53:16.664Z,14.18
2022-11-09T04:54:16.671Z,14.18
2022-11-09T04:55:16.633Z,14.17
2022-11-09T04:56:16.632Z,14.18
2022-11-09T04:57:16.633Z,14.20
2022-11-09T04:58:19.865Z,14.21
2022-11-09T04:59:17.583Z,14.20
2022-11-09T05:00:16.584Z,14.20
2022-11-09T05:01:16.577Z,14.21
2022-11-09T05:02:16.566Z,14.20
2022-11-09T05:03:16.952Z,14.21
2022-11-09T05:04:16.617Z,14.20
2022-11-09T05:05:16.513Z,14.17
2022-11-09T05:06:16.543Z,14.17
2022-11-09T05:07:16.608Z,14.17
2022-11-09T05:08:16.479Z,14.18
2022-11-09T05:09:16.462Z,14.17
2022-11-09T05:10:16.451Z,14.18
2022-11-09T05:11:16.437Z,14.17
2022-11-09T05:12:16.420Z,14.17
2022-11-09T05:13:16.420Z,14.15
2022-11-09T05:14:16.401Z,14.15
2022-11-09T05:15:16.379Z,14.12
2022-11-09T05:16:16.372Z,14.10
2022-11-09T05:17:16.360Z,14.07
2022-11-09T05:18:16.368Z,14.04
2022-11-09T05:19:16.343Z,14.02
2022-11-09T05:20:16.329Z,14.00
2022-11-09T05:21:16.308Z,13.97
2022-11-09T05:22:16.301Z,13.92
2022-11-09T05:23:16.299Z,13.91
2022-11-09T05:24:16.282Z,13.89
2022-11-09T05:25:16.248Z,13.88
2022-11-09T05:26:16.258Z,13.87
2022-11-09T05:27:16.229Z,13.88
2022-11-09T05:28:16.227Z,13.85
2022-11-09T05:29:16.216Z,13.82
2022-11-09T05:30:16.199Z,13.82
2022-11-09T05:31:16.181Z,13.81
2022-11-09T05:32:16.180Z,13.78
2022-11-09T05:33:16.159Z,13.75
2022-11-09T05:34:16.159Z,13.71
2022-11-09T05:35:16.128Z,13.70
2022-11-09T05:36:16.119Z,13.70
2022-11-09T05:37:16.107Z,13.67
2022-11-09T05:38:16.100Z,13.64
2022-11-09T05:39:16.088Z,13.62
2022-11-09T05:40:16.058Z,13.62
2022-11-09T05:41:16.046Z,13.60
2022-11-09T05:42:16.050Z,13.57
2022-11-09T05:43:16.029Z,13.55
2022-11-09T05:44:16.028Z,13.55
2022-11-09T05:45:40.712Z,13.52
2022-11-09T05:46:16.985Z,13.52
2022-11-09T05:47:15.998Z,13.52
2022-11-09T05:48:15.968Z,13.52
2022-11-09T05:49:15.954Z,13.49
2022-11-09T05:50:15.943Z,13.49
2022-11-09T05:51:15.914Z,13.48
2022-11-09T05:52:15.945Z,13.48
2022-11-09T05:53:15.912Z,13.46
2022-11-09T05:54:15.895Z,13.45
2022-11-09T05:55:15.878Z,13.44
2022-11-09T05:56:15.882Z,13.41
2022-11-09T05:57:15.863Z,13.39
2022-11-09T05:58:15.851Z,13.39
2022-11-09T05:59:15.819Z,13.36
2022-11-09T06:00:15.817Z,13.38
2022-11-09T06:01:15.800Z,13.36
2022-11-09T06:02:15.856Z,13.32
2022-11-09T06:03:15.774Z,13.32
2022-11-09T06:04:15.770Z,13.30
2022-11-09T06:05:15.746Z,13.29
2022-11-09T06:06:15.751Z,13.28
2022-11-09T06:07:15.824Z,13.26
2022-11-09T06:08:15.710Z,13.26
2022-11-09T06:09:15.706Z,13.25
2022-11-09T06:10:15.695Z,13.25
2022-11-09T06:11:21.777Z,13.23
2022-11-09T06:12:16.673Z,13.23
2022-11-09T06:13:15.650Z,13.23
2022-11-09T06:14:15.633Z,13.23
2022-11-09T06:15:15.641Z,13.22
2022-11-09T06:16:15.609Z,13.23
2022-11-09T06:17:15.602Z,13.23
2022-11-09T06:18:15.574Z,13.26
2022-11-09T06:19:15.560Z,13.25
2022-11-09T06:20:15.551Z,13.25
2022-11-09T06:21:15.531Z,13.25
2022-11-09T06:22:15.540Z,13.26
2022-11-09T06:23:15.513Z,13.23
2022-11-09T06:24:15.503Z,13.22
2022-11-09T06:25:15.495Z,13.22
2022-11-09T06:26:15.489Z,13.19
2022-11-09T06:27:15.475Z,13.19
2022-11-09T06:28:15.470Z,13.14
2022-11-09T06:29:15.465Z,13.14
2022-11-09T06:30:15.424Z,13.12
2022-11-09T06:31:15.416Z,13.11
2022-11-09T06:32:15.421Z,13.10
2022-11-09T06:33:15.380Z,13.07
2022-11-09T06:34:15.370Z,13.05
2022-11-09T06:35:15.367Z,13.04
2022-11-09T06:36:15.339Z,13.03
2022-11-09T06:37:15.341Z,13.01
2022-11-09T06:38:15.322Z,13.03
2022-11-09T06:39:15.309Z,13.01
2022-11-09T06:40:15.315Z,13.00
2022-11-09T06:41:15.290Z,12.97
2022-11-09T06:42:15.371Z,12.96
2022-11-09T06:43:15.262Z,12.97
2022-11-09T06:44:15.257Z,12.97
2022-11-09T06:45:15.233Z,12.96
2022-11-09T06:46:15.228Z,12.95
2022-11-09T06:47:15.208Z,12.93
2022-11-09T06:48:15.189Z,12.93
2022-11-09T06:49:15.179Z,12.92
2022-11-09T06:50:15.176Z,12.92
2022-11-09T06:51:15.147Z,12.89
2022-11-09T06:52:15.248Z,12.89
2022-11-09T06:53:15.126Z,12.89
2022-11-09T06:54:15.108Z,12.87
2022-11-09T06:55:15.108Z,12.89
2022-11-09T06:56:15.086Z,12.87
2022-11-09T06:57:15.098Z,12.87
2022-11-09T06:58:15.077Z,12.87
2022-11-09T06:59:15.046Z,12.87
2022-11-09T07:00:15.053Z,12.86
2022-11-09T07:01:15.088Z,12.86
2022-11-09T07:02:15.034Z,12.86
2022-11-09T07:03:15.013Z,12.85
2022-11-09T07:04:14.985Z,12.85
2022-11-09T07:05:14.975Z,12.83
2022-11-09T07:06:14.966Z,12.85
2022-11-09T07:07:15.114Z,12.83
2022-11-09T07:08:14.949Z,12.85
2022-11-09T07:09:14.927Z,12.83
2022-11-09T07:10:14.925Z,12.83
2022-11-09T07:11:14.906Z,12.85
2022-11-09T07:12:14.904Z,12.85
2022-11-09T07:13:14.876Z,12.86
2022-11-09T07:14:14.864Z,12.85
2022-11-09T07:15:14.857Z,12.83
2022-11-09T07:16:14.835Z,12.85
2022-11-09T07:17:14.837Z,12.83
2022-11-09T07:18:14.805Z,12.85
2022-11-09T07:19:14.803Z,12.83
2022-11-09T07:20:14.855Z,12.82
2022-11-09T07:21:15.029Z,12.85
2022-11-09T07:22:14.776Z,12.85
2022-11-09T07:23:14.742Z,12.85
2022-11-09T07:24:14.732Z,12.86
2022-11-09T07:25:14.725Z,12.86
2022-11-09T07:26:14.704Z,12.85
2022-11-09T07:27:14.712Z,12.85
2022-11-09T07:28:14.683Z,12.85
2022-11-09T07:29:14.664Z,12.85
2022-11-09T07:30:14.663Z,12.86
2022-11-09T07:31:14.633Z,12.85
2022-11-09T07:32:14.660Z,12.86
2022-11-09T07:33:14.633Z,12.86
2022-11-09T07:34:14.602Z,12.87
2022-11-09T07:35:14.590Z,12.89
2022-11-09T07:36:19.847Z,12.92
2022-11-09T07:37:15.570Z,12.93
2022-11-09T07:38:14.555Z,12.93
2022-11-09T07:39:14.544Z,12.93
2022-11-09T07:40:14.521Z,12.95
2022-11-09T07:41:14.509Z,12.96
2022-11-09T07:42:14.520Z,12.97
2022-11-09T07:43:14.479Z,12.97
2022-11-09T07:44:14.499Z,13.00
2022-11-09T07:45:14.460Z,13.00
2022-11-09T07:46:14.449Z,13.00
2022-11-09T07:47:18.150Z,13.01
2022-11-09T07:48:14.437Z,13.00
2022-11-09T07:49:14.403Z,13.00
2022-11-09T07:50:14.399Z,13.01
2022-11-09T07:51:14.379Z,13.01
2022-11-09T07:52:14.389Z,13.00
2022-11-09T07:53:14.351Z,12.97
2022-11-09T07:54:14.329Z,12.96
2022-11-09T07:55:14.318Z,12.96
2022-11-09T07:56:14.319Z,12.95
2022-11-09T07:57:14.298Z,12.97
2022-11-09T07:58:14.298Z,13.00
2022-11-09T07:59:14.277Z,13.00
2022-11-09T08:00:14.260Z,13.00
2022-11-09T08:01:14.250Z,12.97
2022-11-09T08:02:14.725Z,12.97
2022-11-09T08:03:14.229Z,12.97
2022-11-09T08:04:14.218Z,13.00
2022-11-09T08:05:14.200Z,13.01
2022-11-09T08:06:18.218Z,13.00
2022-11-09T08:07:14.205Z,12.97
2022-11-09T08:08:14.189Z,13.00
2022-11-09T08:09:14.145Z,13.00
2022-11-09T08:10:14.126Z,12.97
2022-11-09T08:11:14.115Z,12.97
2022-11-09T08:12:14.113Z,13.00
2022-11-09T08:13:14.101Z,13.01
2022-11-09T08:14:14.076Z,13.01
2022-11-09T08:15:14.052Z,13.01
2022-11-09T08:16:14.078Z,13.03
2022-11-09T08:17:14.034Z,13.03
2022-11-09T08:18:14.043Z,13.03
2022-11-09T08:19:14.010Z,13.03
2022-11-09T08:20:13.998Z,13.03
2022-11-09T08:21:13.985Z,13.04
2022-11-09T08:22:13.982Z,13.03
2022-11-09T08:23:14.077Z,13.03
2022-11-09T08:24:13.993Z,13.01
2022-11-09T08:25:13.936Z,13.01
2022-11-09T08:26:13.921Z,13.00
2022-11-09T08:27:13.901Z,12.97
2022-11-09T08:28:15.146Z,12.96
2022-11-09T08:29:13.880Z,12.96
2022-11-09T08:30:13.879Z,12.95
2022-11-09T08:31:13.860Z,12.96
2022-11-09T08:32:13.841Z,12.95
2022-11-09T08:33:13.852Z,12.96
2022-11-09T08:34:13.816Z,12.97
2022-11-09T08:35:13.791Z,13.00
2022-11-09T08:36:13.806Z,13.03
2022-11-09T08:37:13.781Z,13.04
2022-11-09T08:38:13.789Z,13.05
2022-11-09T08:39:13.742Z,13.07
2022-11-09T08:40:13.740Z,13.08
2022-11-09T08:41:14.213Z,13.10
2022-11-09T08:42:13.722Z,13.11
2022-11-09T08:43:13.710Z,13.12
2022-11-09T08:44:13.699Z,13.17
2022-11-09T08:45:13.669Z,13.20
2022-11-09T08:46:13.662Z,13.25
2022-11-09T08:47:13.648Z,13.28
2022-11-09T08:48:13.647Z,13.30
2022-11-09T08:49:13.618Z,13.33
2022-11-09T08:50:13.609Z,13.39
2022-11-09T08:51:13.594Z,13.41
2022-11-09T08:52:13.581Z,13.45
2022-11-09T08:53:13.581Z,13.48
2022-11-09T08:54:13.564Z,13.52
2022-11-09T08:55:13.568Z,13.55
2022-11-09T08:56:13.538Z,13.59
2022-11-09T08:57:13.538Z,13.62
2022-11-09T08:58:13.527Z,13.64
2022-11-09T08:59:13.489Z,13.67
2022-11-09T09:00:13.486Z,13.71
2022-11-09T09:01:16.947Z,13.77
2022-11-09T09:02:13.526Z,13.82
2022-11-09T09:03:13.457Z,13.87
2022-11-09T09:04:13.426Z,13.92
2022-11-09T09:05:13.416Z,13.97
2022-11-09T09:06:13.398Z,14.03
2022-11-09T09:07:13.417Z,14.06
2022-11-09T09:08:13.385Z,14.12
2022-11-09T09:09:13.355Z,14.20
2022-11-09T09:10:13.355Z,14.21
2022-11-09T09:11:13.334Z,14.25
2022-11-09T09:12:13.315Z,14.32
2022-11-09T09:13:13.305Z,14.39
2022-11-09T09:14:13.288Z,14.42
2022-11-09T09:15:13.274Z,14.46
2022-11-09T09:16:13.265Z,14.46
2022-11-09T09:17:13.263Z,14.50
2022-11-09T09:18:13.263Z,14.54
2022-11-09T09:19:13.224Z,14.58
2022-11-09T09:20:13.215Z,14.62
2022-11-09T09:21:13.205Z,14.68
2022-11-09T09:22:13.185Z,14.69
2022-11-09T09:23:13.184Z,14.75
2022-11-09T09:24:13.162Z,14.80
2022-11-09T09:25:13.146Z,14.88
2022-11-09T09:26:13.144Z,14.95
2022-11-09T09:27:13.125Z,14.98
2022-11-09T09:28:13.125Z,14.99
2022-11-09T09:29:13.103Z,14.99
2022-11-09T09:30:13.103Z,14.98
2022-11-09T09:31:18.089Z,15.03
2022-11-09T09:32:14.052Z,15.07
2022-11-09T09:33:13.065Z,15.09
2022-11-09T09:34:13.032Z,15.09
2022-11-09T09:35:13.047Z,15.10
2022-11-09T09:36:13.004Z,15.14
2022-11-09T09:37:13.003Z,15.16
2022-11-09T09:38:13.018Z,15.21
2022-11-09T09:39:12.971Z,15.27
2022-11-09T09:40:12.952Z,15.29
2022-11-09T09:41:12.953Z,15.32
2022-11-09T09:42:12.930Z,15.32
2022-11-09T09:43:12.932Z,15.35
2022-11-09T09:44:12.910Z,15.44
2022-11-09T09:45:12.893Z,15.50
2022-11-09T09:46:12.881Z,15.47
2022-11-09T09:47:12.881Z,15.47
2022-11-09T09:48:12.869Z,15.47
2022-11-09T09:49:12.851Z,15.51
2022-11-09T09:50:12.846Z,15.51
2022-11-09T09:51:12.862Z,15.49
2022-11-09T09:52:12.807Z,15.41
2022-11-09T09:53:23.693Z,15.32
2022-11-09T09:54:13.782Z,15.32
2022-11-09T09:55:12.768Z,15.34
2022-11-09T09:56:12.752Z,15.35
2022-11-09T09:57:12.728Z,15.35
2022-11-09T09:58:12.740Z,15.35
2022-11-09T09:59:12.722Z,15.29
2022-11-09T10:00:12.698Z,15.28
2022-11-09T10:01:12.783Z,15.27
2022-11-09T10:02:12.677Z,15.28
2022-11-09T10:03:12.668Z,15.29
2022-11-09T10:04:12.707Z,15.32
2022-11-09T10:05:12.650Z,15.29
2022-11-09T10:06:12.639Z,15.31
2022-11-09T10:07:12.653Z,15.29
2022-11-09T10:08:12.629Z,15.28
2022-11-09T10:09:12.595Z,15.27
2022-11-09T10:10:12.573Z,15.27
2022-11-09T10:11:12.589Z,15.25
2022-11-09T10:12:12.546Z,15.27
2022-11-09T10:13:12.547Z,15.27
2022-11-09T10:14:12.517Z,15.28
2022-11-09T10:15:12.511Z,15.28
2022-11-09T10:16:12.509Z,15.25
2022-11-09T10:17:12.500Z,15.25
2022-11-09T10:18:12.488Z,15.21
2022-11-09T10:19:12.464Z,15.27
2022-11-09T10:20:12.437Z,15.27
2022-11-09T10:21:12.518Z,15.29
2022-11-09T10:22:12.415Z,15.32
2022-11-09T10:23:12.426Z,15.35
2022-11-09T10:24:12.386Z,15.32
2022-11-09T10:25:23.648Z,15.34
2022-11-09T10:26:15.785Z,15.35
2022-11-09T10:27:12.354Z,15.36
2022-11-09T10:28:13.276Z,15.38
2022-11-09T10:29:16.918Z,15.39
2022-11-09T10:30:13.315Z,15.43
2022-11-09T10:31:12.462Z,15.44
2022-11-09T10:32:12.295Z,15.46
2022-11-09T10:33:12.304Z,15.47
2022-11-09T10:34:12.267Z,15.49
2022-11-09T10:35:12.243Z,15.51
2022-11-09T10:36:12.441Z,15.51
2022-11-09T10:37:12.222Z,15.53
2022-11-09T10:38:12.236Z,15.53
2022-11-09T10:39:12.204Z,15.53
2022-11-09T10:40:12.203Z,15.51
2022-11-09T10:41:12.380Z,15.51
2022-11-09T10:42:12.162Z,15.51
2022-11-09T10:43:12.161Z,15.49
2022-11-09T10:44:17.029Z,15.46
2022-11-09T10:45:13.115Z,15.43
2022-11-09T10:46:12.138Z,15.44
2022-11-09T10:47:12.096Z,15.44
2022-11-09T10:48:12.100Z,15.43
2022-11-09T10:49:12.064Z,15.43
2022-11-09T10:50:12.063Z,15.43
2022-11-09T10:51:12.043Z,15.44
2022-11-09T10:52:12.066Z,15.46
2022-11-09T10:53:12.071Z,15.46
2022-11-09T10:54:12.010Z,15.46
2022-11-09T10:55:12.050Z,15.47
2022-11-09T10:56:12.032Z,15.51
2022-11-09T10:57:11.998Z,15.54
2022-11-09T10:58:12.014Z,15.57
2022-11-09T10:59:11.942Z,15.57
2022-11-09T11:00:11.979Z,15.59
2022-11-09T11:01:11.995Z,15.60
2022-11-09T11:02:11.967Z,15.59
2022-11-09T11:03:11.947Z,15.67
2022-11-09T11:04:11.903Z,15.74
2022-11-09T11:05:11.889Z,15.78
2022-11-09T11:06:11.859Z,15.84
2022-11-09T11:07:13.914Z,15.89
2022-11-09T11:08:12.957Z,16.00
2022-11-09T11:09:11.902Z,16.20
2022-11-09T11:10:11.848Z,16.35
2022-11-09T11:11:32.676Z,16.41
2022-11-09T11:12:12.779Z,16.52
2022-11-09T11:13:11.824Z,16.64
2022-11-09T11:14:11.760Z,16.73
2022-11-09T11:15:11.739Z,16.73
2022-11-09T11:16:11.719Z,16.75
2022-11-09T11:17:11.709Z,16.73
2022-11-09T11:18:11.710Z,16.75
2022-11-09T11:19:11.695Z,16.79
2022-11-09T11:20:11.669Z,16.79
2022-11-09T11:21:16.122Z,16.78
2022-11-09T11:22:12.658Z,16.67
2022-11-09T11:23:11.672Z,16.68
2022-11-09T11:24:11.652Z,16.82
2022-11-09T11:25:11.628Z,16.82
2022-11-09T11:26:11.597Z,16.89
2022-11-09T11:27:11.597Z,16.88
2022-11-09T11:28:11.640Z,17.04
2022-11-09T11:29:11.586Z,17.23
2022-11-09T11:30:11.579Z,17.25
2022-11-09T11:31:11.586Z,17.34
2022-11-09T11:32:11.557Z,17.46
2022-11-09T11:33:11.544Z,17.49
2022-11-09T11:34:11.497Z,17.43
2022-11-09T11:35:11.497Z,17.23
2022-11-09T11:36:11.486Z,17.18
2022-11-09T11:37:11.438Z,17.12
2022-11-09T11:38:11.500Z,17.00
2022-11-09T11:39:11.425Z,17.00
2022-11-09T11:40:11.414Z,16.89
2022-11-09T11:41:11.385Z,16.93
2022-11-09T11:42:11.386Z,17.00
2022-11-09T11:43:11.396Z,17.03
2022-11-09T11:44:11.416Z,16.96
2022-11-09T11:45:38.956Z,16.81
2022-11-09T11:46:12.468Z,16.60
2022-11-09T11:47:11.314Z,16.49
2022-11-09T11:48:11.334Z,16.41
2022-11-09T11:49:11.297Z,16.31
2022-11-09T11:50:11.294Z,16.21
2022-11-09T11:51:11.261Z,16.11
2022-11-09T11:52:11.253Z,16.08
2022-11-09T11:53:11.276Z,16.04
2022-11-09T11:54:11.222Z,16.02
2022-11-09T11:55:11.224Z,16.02
2022-11-09T11:56:11.205Z,16.04
2022-11-09T11:57:11.179Z,16.00
2022-11-09T11:58:11.193Z,15.97
2022-11-09T11:59:11.133Z,15.96
2022-11-09T12:00:11.173Z,15.90
2022-11-09T12:01:11.162Z,15.84
2022-11-09T12:02:11.143Z,15.78
2022-11-09T12:03:11.191Z,15.69
2022-11-09T12:04:11.084Z,15.67
2022-11-09T12:05:11.051Z,15.67
2022-11-09T12:06:11.037Z,15.69
2022-11-09T12:07:11.105Z,15.72
2022-11-09T12:08:11.072Z,15.72
2022-11-09T12:09:11.005Z,15.75
2022-11-09T12:10:11.040Z,15.78
2022-11-09T12:11:11.003Z,15.80
2022-11-09T12:12:10.973Z,15.80
2022-11-09T12:13:10.973Z,15.76
2022-11-09T12:14:10.934Z,15.72
2022-11-09T12:15:10.930Z,15.72
2022-11-09T12:16:10.908Z,15.69
2022-11-09T12:17:10.900Z,15.68
2022-11-09T12:18:10.908Z,15.64
2022-11-09T12:19:10.854Z,15.57
2022-11-09T12:20:10.872Z,15.56
2022-11-09T12:21:10.851Z,15.53
2022-11-09T12:22:10.835Z,15.51
2022-11-09T12:23:10.831Z,15.51
2022-11-09T12:24:10.793Z,15.50
2022-11-09T12:25:10.781Z,15.51
2022-11-09T12:26:15.518Z,15.50
2022-11-09T12:27:31.039Z,15.47
2022-11-09T12:28:11.786Z,15.46
2022-11-09T12:29:10.731Z,15.44
2022-11-09T12:30:10.720Z,15.43
2022-11-09T12:31:10.720Z,15.41
2022-11-09T12:32:10.691Z,15.41
2022-11-09T12:33:10.702Z,15.43
2022-11-09T12:34:10.711Z,15.46
2022-11-09T12:35:10.666Z,15.43
2022-11-09T12:36:10.728Z,15.46
2022-11-09T12:37:10.632Z,15.47
2022-11-09T12:38:10.697Z,15.49
2022-11-09T12:39:10.641Z,15.47
2022-11-09T12:40:10.603Z,15.44
2022-11-09T12:41:10.589Z,15.43
2022-11-09T12:42:10.568Z,15.44
2022-11-09T12:43:10.611Z,15.47
2022-11-09T12:44:15.909Z,15.47
2022-11-09T12:45:11.530Z,15.44
2022-11-09T12:46:10.521Z,15.39
2022-11-09T12:47:10.530Z,15.36
2022-11-09T12:48:10.497Z,15.38
2022-11-09T12:49:10.486Z,15.34
2022-11-09T12:50:10.459Z,15.34
2022-11-09T12:51:10.439Z,15.32
2022-11-09T12:52:10.449Z,15.31